Time;durP1;ratioP1;P1;durP2;ratioP2;P2;SDS_P1;SDS_P2;PMS_P1;PMS_P2;Temp;Humidity;BMP_temperature;BMP_pressure;BME280_temperature;BME280_humidity;BME280_pressure;Samples;Min_cycle;Max_cycle;Signal;HPM_P1;HPM_P2
2022/08/08 00:00:29;;;;;;;;;;;;;;;28.22;41.21;94552.75;4945131;28;9134;-63
2022/08/08 00:03:24;;;;;;;;;;;;;;;28.22;40.87;94552.00;4960734;28;7973;-63
2022/08/08 00:06:21;;;;;;;;;;;;;;;28.21;41.21;94548.47;4950836;28;9119;-63
2022/08/08 00:09:21;;;;;;;;;;;;;;;28.23;40.86;94550.72;4961958;28;7960;-63
2022/08/08 00:12:24;;;;;;;;;;;;;;;28.21;40.85;94542.19;4943444;28;8204;-63
2022/08/08 00:15:14;;;;;;;;;;;;;;;28.22;40.36;94540.94;4967433;28;9046;-63
2022/08/08 00:18:04;;;;;;;;;;;;;;;28.18;40.57;94543.25;4961456;28;8234;-63
2022/08/08 00:20:50;;;;;;;;;;;;;;;28.19;41.04;94555.78;5016235;28;7219;-63
2022/08/08 00:23:39;;;;;;;;;;;;;;;28.18;40.98;94551.53;5022859;28;9145;-63
2022/08/08 00:26:10;;;;;;;;;;;;;;;28.18;40.77;94546.78;5016879;28;8802;-63
2022/08/08 00:28:42;;;;;;;;;;;;;;;28.20;40.76;94555.28;5023359;28;7007;-63
2022/08/08 00:31:40;;;;;;;;;;;;;;;28.21;40.68;94551.22;5016259;28;7381;-63
2022/08/08 00:38:05;;;;;;;;;;;;;;;28.21;40.80;94544.94;4968444;28;7107;-62
2022/08/08 00:41:04;;;;;;;;;;;;;;;28.22;40.68;94540.94;4950679;28;9052;-62
2022/08/08 00:43:50;;;;;;;;;;;;;;;28.23;40.43;94545.94;4968728;28;9135;-63
2022/08/08 00:47:03;;;;;;;;;;;;;;;28.23;40.66;94536.91;4967882;28;7236;-63
2022/08/08 00:50:13;;;;;;;;;;;;;;;28.21;40.70;94536.66;4950513;28;9456;-63
2022/08/08 00:53:18;;;;;;;;;;;;;;;28.21;40.66;94533.88;4952949;28;8964;-63
2022/08/08 00:56:14;;;;;;;;;;;;;;;28.20;40.53;94535.19;4953352;28;9308;-64
2022/08/08 00:59:24;;;;;;;;;;;;;;;28.19;40.63;94530.91;4954813;28;9196;-63
2022/08/08 01:02:27;;;;;;;;;;;;;;;28.18;40.23;94529.41;4966358;28;9045;-63
2022/08/08 01:05:36;;;;;;;;;;;;;;;28.18;40.34;94524.66;4954187;28;7230;-63
2022/08/08 01:08:31;;;;;;;;;;;;;;;28.17;40.42;94527.91;4966934;28;7265;-63
2022/08/08 01:11:12;;;;;;;;;;;;;;;28.16;40.35;94526.44;4998128;28;9112;-63
2022/08/08 01:13:41;;;;;;;;;;;;;;;28.17;40.60;94520.38;5020450;28;7731;-63
2022/08/08 01:16:07;;;;;;;;;;;;;;;28.16;40.52;94520.91;5024988;28;6869;-63
2022/08/08 01:18:45;;;;;;;;;;;;;;;28.17;40.67;94517.59;5015895;28;6989;-63
2022/08/08 01:21:17;;;;;;;;;;;;;;;28.19;40.69;94519.84;5013399;28;7283;-63
2022/08/08 01:24:09;;;;;;;;;;;;;;;28.20;40.06;94518.59;5015348;28;7206;-63
2022/08/08 01:27:26;;;;;;;;;;;;;;;28.22;40.14;94518.78;5013577;28;7424;-63
2022/08/08 01:30:20;;;;;;;;;;;;;;;28.22;40.19;94513.25;5020614;28;9042;-63
2022/08/08 01:33:18;;;;;;;;;;;;;;;28.23;40.32;94515.50;5018844;28;9132;-63
2022/08/08 01:36:17;;;;;;;;;;;;;;;28.23;40.29;94520.31;5021163;28;7394;-63
2022/08/08 01:39:21;;;;;;;;;;;;;;;28.23;40.50;94520.31;5015907;28;7341;-63
2022/08/08 01:41:56;;;;;;;;;;;;;;;28.22;40.54;94521.56;5014582;28;7181;-63
2022/08/08 01:44:50;;;;;;;;;;;;;;;28.23;40.32;94512.72;5013104;28;8700;-63
2022/08/08 01:47:37;;;;;;;;;;;;;;;28.22;40.34;94516.78;5014369;28;7222;-63
2022/08/08 01:50:20;;;;;;;;;;;;;;;28.20;40.29;94516.56;5014373;28;7343;-64
2022/08/08 01:53:04;;;;;;;;;;;;;;;28.21;40.12;94528.34;5013904;28;7005;-64
2022/08/08 01:55:59;;;;;;;;;;;;;;;28.21;39.94;94528.34;5028568;28;9069;-63
2022/08/08 01:58:52;;;;;;;;;;;;;;;28.23;40.34;94531.38;4972715;28;9111;-64
2022/08/08 02:01:58;;;;;;;;;;;;;;;28.21;40.20;94531.88;4968968;28;9453;-63
2022/08/08 02:04:52;;;;;;;;;;;;;;;28.22;39.96;94535.41;4976762;28;9554;-63
2022/08/08 02:07:42;;;;;;;;;;;;;;;28.22;40.17;94535.41;4976183;28;8894;-63
2022/08/08 02:10:32;;;;;;;;;;;;;;;28.21;40.17;94539.41;4959512;28;9651;-63
2022/08/08 02:13:24;;;;;;;;;;;;;;;28.21;40.28;94539.41;4974775;28;7380;-63
2022/08/08 02:16:18;;;;;;;;;;;;;;;28.18;40.16;94546.00;4964812;28;7244;-63
2022/08/08 02:19:06;;;;;;;;;;;;;;;28.17;40.85;94539.72;4973759;28;7234;-63
2022/08/08 02:25:30;;;;;;;;;;;;;;;28.14;40.22;94538.00;4970183;28;8456;-63
2022/08/08 02:27:58;;;;;;;;;;;;;;;28.15;40.44;94539.50;4886463;29;7105;-63
2022/08/08 02:30:50;;;;;;;;;;;;;;;28.14;40.13;94540.03;4887267;29;7051;-64
2022/08/08 02:33:40;;;;;;;;;;;;;;;28.14;40.28;94545.56;4892272;29;9423;-63
2022/08/08 02:36:44;;;;;;;;;;;;;;;28.14;40.03;94540.78;4961288;28;7795;-63
2022/08/08 02:39:28;;;;;;;;;;;;;;;28.12;40.01;94542.59;4972556;28;7287;-63
2022/08/08 02:42:41;;;;;;;;;;;;;;;28.11;40.47;94543.84;4966781;28;6856;-63
2022/08/08 02:45:57;;;;;;;;;;;;;;;28.14;40.05;94540.03;4915959;29;7031;-63
2022/08/08 02:48:58;;;;;;;;;;;;;;;28.12;39.94;94543.31;4917190;29;9136;-63
2022/08/08 02:52:02;;;;;;;;;;;;;;;28.12;40.08;94537.06;4900050;29;8752;-63
2022/08/08 02:55:02;;;;;;;;;;;;;;;28.13;39.95;94539.28;4916683;29;7000;-63
2022/08/08 03:01:11;;;;;;;;;;;;;;;28.13;39.93;94541.31;4915871;29;9051;-64
2022/08/08 03:04:03;;;;;;;;;;;;;;;28.12;39.84;94542.59;4919336;28;7057;-63
2022/08/08 03:06:50;;;;;;;;;;;;;;;28.11;40.04;94530.78;4968885;28;7411;-63
2022/08/08 03:09:55;;;;;;;;;;;;;;;28.09;39.95;94530.56;4969175;28;7209;-63
2022/08/08 03:13:03;;;;;;;;;;;;;;;28.08;40.13;94533.81;4968664;28;7235;-63
2022/08/08 03:16:00;;;;;;;;;;;;;;;28.07;39.96;94535.09;4969731;28;7229;-63
2022/08/08 03:18:52;;;;;;;;;;;;;;;28.06;40.02;94528.06;4937319;28;8739;-63
2022/08/08 03:21:18;;;;;;;;;;;;;;;28.07;40.02;94530.31;4983953;28;7056;-63
2022/08/08 03:23:59;;;;;;;;;;;;;;;28.07;39.66;94535.09;5028680;28;9115;-64
2022/08/08 03:26:51;;;;;;;;;;;;;;;28.05;39.93;94537.66;5012798;28;8940;-64
2022/08/08 03:29:34;;;;;;;;;;;;;;;28.06;39.80;94544.66;5027634;28;8713;-63
2022/08/08 03:34:49;;;;;;;;;;;;;;;28.03;40.04;94549.25;5020631;28;7263;-63
2022/08/08 03:37:17;;;;;;;;;;;;;;;28.02;39.93;94539.44;5028774;28;9020;-63
2022/08/08 03:39:46;;;;;;;;;;;;;;;28.03;39.79;94545.72;5022270;28;8206;-63
2022/08/08 03:42:49;;;;;;;;;;;;;;;28.03;39.75;94548.50;5020307;28;7088;-63
2022/08/08 03:45:46;;;;;;;;;;;;;;;28.00;39.63;94549.53;4936531;28;7225;-63
2022/08/08 03:48:15;;;;;;;;;;;;;;;28.01;39.74;94553.78;4951779;28;7214;-63
2022/08/08 03:51:07;;;;;;;;;;;;;;;28.01;39.71;94551.03;4951989;28;6856;-63
2022/08/08 03:53:36;;;;;;;;;;;;;;;28.01;39.76;94551.78;4935809;28;7023;-63
2022/08/08 03:56:14;;;;;;;;;;;;;;;27.99;39.21;94550.81;4936566;28;9145;-63
2022/08/08 03:58:47;;;;;;;;;;;;;;;27.99;40.03;94548.03;4936616;28;7275;-64
2022/08/08 04:01:14;;;;;;;;;;;;;;;27.99;39.87;94550.81;4949754;28;6900;-63
2022/08/08 04:03:45;;;;;;;;;;;;;;;27.99;40.02;94550.81;4952001;28;7221;-63
2022/08/08 04:06:23;;;;;;;;;;;;;;;28.00;39.85;94552.28;4932168;28;7239;-63
2022/08/08 04:08:49;;;;;;;;;;;;;;;27.99;39.76;94550.81;4936499;28;7246;-63
2022/08/08 04:11:17;;;;;;;;;;;;;;;28.00;39.13;94546.75;4950236;28;9495;-63
2022/08/08 04:13:44;;;;;;;;;;;;;;;27.99;39.73;94548.78;4935602;28;7256;-63
2022/08/08 04:16:10;;;;;;;;;;;;;;;27.96;39.51;94552.56;4918743;28;7296;-63
2022/08/08 04:18:36;;;;;;;;;;;;;;;27.97;39.26;94558.84;4949465;28;7317;-63
2022/08/08 04:21:02;;;;;;;;;;;;;;;27.97;39.59;94558.84;5014796;28;9203;-63
2022/08/08 04:23:31;;;;;;;;;;;;;;;27.98;39.59;94565.88;5015995;28;7056;-63
2022/08/08 04:25:57;;;;;;;;;;;;;;;27.97;39.61;94561.63;5016656;28;8867;-63
2022/08/08 04:28:23;;;;;;;;;;;;;;;27.97;39.41;94556.84;5014614;28;7242;-63
2022/08/08 04:31:00;;;;;;;;;;;;;;;27.98;39.49;94566.66;5025921;28;7294;-63
2022/08/08 04:33:45;;;;;;;;;;;;;;;27.98;39.69;94565.88;5020698;28;7231;-62
2022/08/08 04:36:13;;;;;;;;;;;;;;;27.97;39.36;94569.91;5016970;28;7478;-63
2022/08/08 04:38:40;;;;;;;;;;;;;;;27.97;39.74;94576.19;5019643;28;7081;-62
2022/08/08 04:41:07;;;;;;;;;;;;;;;27.98;39.41;94579.72;5020514;28;7105;-63
2022/08/08 04:43:35;;;;;;;;;;;;;;;27.98;39.21;94576.94;5019964;28;6916;-63
2022/08/08 04:46:19;;;;;;;;;;;;;;;27.98;40.03;94571.41;5029871;28;9440;-63
2022/08/08 04:48:45;;;;;;;;;;;;;;;27.96;39.73;94580.22;5016980;28;8333;-62
2022/08/08 04:51:15;;;;;;;;;;;;;;;27.98;39.38;94574.19;5016158;28;9011;-63
2022/08/08 04:54:10;;;;;;;;;;;;;;;27.97;39.84;94583.72;5016435;28;7228;-62
2022/08/08 04:56:38;;;;;;;;;;;;;;;27.94;39.82;94582.75;4913571;29;7242;-63
2022/08/08 04:59:04;;;;;;;;;;;;;;;27.95;39.51;94581.47;4907062;29;9077;-62
2022/08/08 05:01:30;;;;;;;;;;;;;;;27.95;39.64;94584.25;4921340;29;9058;-63
2022/08/08 05:03:58;;;;;;;;;;;;;;;27.94;39.62;94582.75;4922422;29;9454;-63
2022/08/08 05:06:24;;;;;;;;;;;;;;;27.95;39.25;94589.75;4911548;29;7034;-63
2022/08/08 05:08:51;;;;;;;;;;;;;;;27.96;39.57;94596.06;4910736;29;6896;-62
2022/08/08 05:11:19;;;;;;;;;;;;;;;27.97;39.41;94597.56;4919220;29;7077;-63
2022/08/08 05:13:45;;;;;;;;;;;;;;;27.95;39.27;94592.53;4919607;29;9427;-62
2022/08/08 05:16:12;;;;;;;;;;;;;;;27.92;39.21;94590.81;4910836;29;8790;-63
2022/08/08 05:18:38;;;;;;;;;;;;;;;27.89;39.46;94585.56;4919818;29;7471;-63
2022/08/08 05:21:09;;;;;;;;;;;;;;;27.90;39.08;94598.91;4911345;29;9449;-63
2022/08/08 05:23:45;;;;;;;;;;;;;;;27.87;39.22;94593.66;4904716;29;9805;-63
2022/08/08 05:26:23;;;;;;;;;;;;;;;27.86;39.72;94601.19;4923075;29;9073;-63
2022/08/08 05:28:49;;;;;;;;;;;;;;;27.85;39.65;94605.22;4919614;29;7009;-63
2022/08/08 05:31:19;;;;;;;;;;;;;;;27.84;40.08;94603.00;4907265;29;7347;-63
2022/08/08 05:33:47;;;;;;;;;;;;;;;27.83;39.95;94599.47;4978501;28;7214;-63
2022/08/08 05:36:22;;;;;;;;;;;;;;;27.84;39.65;94600.22;5012089;28;7016;-63
2022/08/08 05:38:51;;;;;;;;;;;;;;;27.85;39.53;94601.72;5014452;28;7123;-63
2022/08/08 05:41:23;;;;;;;;;;;;;;;27.86;39.71;94603.94;5014848;28;8004;-63
2022/08/08 05:44:04;;;;;;;;;;;;;;;27.87;39.58;94602.69;5011396;28;7156;-63
2022/08/08 05:46:32;;;;;;;;;;;;;;;27.84;40.12;94605.75;5014795;28;8610;-63
2022/08/08 05:48:59;;;;;;;;;;;;;;;27.82;40.11;94602.78;5017042;28;9021;-64
2022/08/08 05:51:26;;;;;;;;;;;;;;;27.81;40.34;94601.25;5018827;28;7223;-63
2022/08/08 05:53:56;;;;;;;;;;;;;;;27.78;40.65;94603.03;5012156;28;7172;-64
2022/08/08 05:56:25;;;;;;;;;;;;;;;27.78;40.29;94610.59;5028590;28;8743;-64
2022/08/08 05:59:03;;;;;;;;;;;;;;;27.78;40.23;94607.81;5030885;28;8825;-63
2022/08/08 06:01:37;;;;;;;;;;;;;;;27.76;40.08;94610.34;5018744;28;9053;-64
2022/08/08 06:04:13;;;;;;;;;;;;;;;27.76;40.75;94613.13;5019462;28;9128;-63
2022/08/08 06:06:43;;;;;;;;;;;;;;;27.76;40.60;94613.13;5015358;28;7601;-63
2022/08/08 06:09:15;;;;;;;;;;;;;;;27.75;40.88;94619.94;5020430;28;7228;-63
2022/08/08 06:11:50;;;;;;;;;;;;;;;27.78;41.19;94614.09;5016618;28;7141;-62
2022/08/08 06:14:25;;;;;;;;;;;;;;;27.77;41.18;94617.41;5013270;28;7762;-63
2022/08/08 06:16:57;;;;;;;;;;;;;;;27.79;40.70;94617.63;5018933;28;7238;-63
2022/08/08 06:19:24;;;;;;;;;;;;;;;27.77;40.59;94625.69;5021410;28;9251;-63
2022/08/08 06:21:54;;;;;;;;;;;;;;;27.76;41.21;94616.63;5014102;28;9079;-63
2022/08/08 06:24:23;;;;;;;;;;;;;;;27.79;40.99;94620.38;5014264;28;7542;-63
2022/08/08 06:27:09;;;;;;;;;;;;;;;27.79;41.12;94620.38;5031553;28;7288;-63
2022/08/08 06:29:54;;;;;;;;;;;;;;;27.80;41.27;94622.63;5013364;28;7238;-63
2022/08/08 06:32:30;;;;;;;;;;;;;;;27.77;40.96;94626.44;5022347;28;6936;-63
2022/08/08 06:35:04;;;;;;;;;;;;;;;27.76;40.80;94629.69;5034769;28;7174;-63
2022/08/08 06:37:55;;;;;;;;;;;;;;;27.73;40.60;94625.97;5020833;28;9119;-63
2022/08/08 06:40:31;;;;;;;;;;;;;;;27.72;40.58;94635.53;5018584;28;7376;-63
2022/08/08 06:43:10;;;;;;;;;;;;;;;27.71;40.90;94636.78;5022510;28;6966;-62
2022/08/08 06:46:06;;;;;;;;;;;;;;;27.72;40.84;94632.78;5022013;28;9450;-62
2022/08/08 06:49:11;;;;;;;;;;;;;;;27.72;41.13;94634.78;4982104;28;7662;-62
2022/08/08 06:51:37;;;;;;;;;;;;;;;27.73;41.17;94631.47;4987992;28;9582;-63
2022/08/08 06:54:08;;;;;;;;;;;;;;;27.72;41.01;94629.25;4973256;28;7385;-63
2022/08/08 06:56:36;;;;;;;;;;;;;;;27.74;40.77;94640.53;4972580;28;7375;-62
2022/08/08 06:59:05;;;;;;;;;;;;;;;27.75;41.08;94637.28;4989028;28;7054;-62
2022/08/08 07:01:58;;;;;;;;;;;;;;;27.76;40.82;94636.00;4979803;28;10089;-63
2022/08/08 07:04:40;;;;;;;;;;;;;;;27.75;41.27;94642.03;4985671;28;7425;-63
2022/08/08 07:07:15;;;;;;;;;;;;;;;27.76;40.94;94641.50;4986944;28;7226;-63
2022/08/08 07:10:05;;;;;;;;;;;;;;;27.78;41.16;94641.00;4983518;28;7171;-62
2022/08/08 07:12:41;;;;;;;;;;;;;;;27.79;41.22;94646.00;4984435;28;9253;-63
2022/08/08 07:15:12;;;;;;;;;;;;;;;27.80;41.14;94644.72;4964080;28;7180;-63
2022/08/08 07:17:49;;;;;;;;;;;;;;;27.81;41.26;94648.25;4982022;28;9284;-63
2022/08/08 07:20:25;;;;;;;;;;;;;;;27.77;41.10;94648.56;4959115;28;7385;-62
2022/08/08 07:23:13;;;;;;;;;;;;;;;27.80;41.27;94650.25;4975909;28;8326;-62
2022/08/08 07:25:45;;;;;;;;;;;;;;;27.80;40.91;94652.28;5013056;28;8198;-62
2022/08/08 07:28:18;;;;;;;;;;;;;;;27.81;40.91;94651.78;5019935;28;9078;-62
2022/08/08 07:30:45;;;;;;;;;;;;;;;27.80;40.57;94655.03;5037703;28;7382;-62
2022/08/08 07:33:38;;;;;;;;;;;;;;;27.82;41.00;94652.53;5021484;28;9098;-62
2022/08/08 07:36:18;;;;;;;;;;;;;;;27.83;40.90;94654.75;5016661;28;6976;-63
2022/08/08 07:39:01;;;;;;;;;;;;;;;27.84;41.22;94661.03;5040119;28;7230;-63
2022/08/08 07:41:35;;;;;;;;;;;;;;;27.85;40.93;94657.75;5041999;28;6993;-63
2022/08/08 07:44:04;;;;;;;;;;;;;;;27.84;41.57;94666.56;5037412;28;9110;-63
2022/08/08 07:46:30;;;;;;;;;;;;;;;27.82;40.87;94664.31;5027228;28;7017;-63
2022/08/08 07:49:01;;;;;;;;;;;;;;;27.82;40.99;94669.13;5024794;28;9054;-63
2022/08/08 07:51:41;;;;;;;;;;;;;;;27.82;40.81;94663.59;5023670;28;7218;-63
2022/08/08 07:55:02;;;;;;;;;;;;;;;27.82;40.79;94672.59;5042001;28;8982;-63
2022/08/08 07:57:48;;;;;;;;;;;;;;;27.83;40.84;94670.59;4949285;28;7145;-63
2022/08/08 08:00:16;;;;;;;;;;;;;;;27.81;40.80;94670.38;4965186;28;9414;-63
2022/08/08 08:02:46;;;;;;;;;;;;;;;27.82;41.35;94669.13;4966267;28;8091;-63
2022/08/08 08:05:29;;;;;;;;;;;;;;;27.82;41.48;94672.59;4949027;28;7309;-64
2022/08/08 08:08:16;;;;;;;;;;;;;;;27.82;41.27;94672.59;4953682;28;7150;-64
2022/08/08 08:10:50;;;;;;;;;;;;;;;27.82;41.56;94671.88;4971013;28;9194;-64
2022/08/08 08:13:40;;;;;;;;;;;;;;;27.84;41.21;94674.88;4969397;28;9177;-64
2022/08/08 08:16:15;;;;;;;;;;;;;;;27.86;41.65;94675.81;4955555;28;7037;-64
2022/08/08 08:18:47;;;;;;;;;;;;;;;27.86;41.86;94675.81;4951863;28;7277;-64
2022/08/08 08:21:16;;;;;;;;;;;;;;;27.88;41.34;94678.09;4950639;28;7249;-64
2022/08/08 08:23:42;;;;;;;;;;;;;;;27.89;41.22;94674.03;4970370;28;7504;-64
2022/08/08 08:26:13;;;;;;;;;;;;;;;27.93;41.38;94674.50;4969786;28;9158;-65
2022/08/08 08:28:51;;;;;;;;;;;;;;;27.95;40.92;94678.25;4976835;28;7194;-64
2022/08/08 08:31:35;;;;;;;;;;;;;;;27.96;41.20;94684.53;4985427;28;7314;-63
2022/08/08 08:34:01;;;;;;;;;;;;;;;27.95;41.20;94678.25;5026382;28;7352;-64
2022/08/08 08:36:47;;;;;;;;;;;;;;;27.98;41.33;94677.25;5023147;28;9547;-64
2022/08/08 08:39:17;;;;;;;;;;;;;;;27.98;41.26;94676.47;5021929;28;8039;-64
2022/08/08 08:41:44;;;;;;;;;;;;;;;28.00;40.77;94679.47;5026695;28;7056;-64
2022/08/08 08:44:15;;;;;;;;;;;;;;;28.00;41.35;94680.22;5042143;28;7206;-64
2022/08/08 08:47:01;;;;;;;;;;;;;;;28.03;41.22;94670.91;5030021;28;9333;-63
2022/08/08 08:49:29;;;;;;;;;;;;;;;28.02;40.84;94672.16;5023807;28;7940;-63
2022/08/08 08:52:16;;;;;;;;;;;;;;;28.04;40.98;94672.38;5024616;28;8331;-64
2022/08/08 08:54:46;;;;;;;;;;;;;;;28.06;41.17;94677.38;5037838;28;7263;-64
2022/08/08 08:57:15;;;;;;;;;;;;;;;28.04;41.21;94680.69;5030049;28;9091;-64
2022/08/08 08:59:58;;;;;;;;;;;;;;;28.05;41.26;94682.19;5025359;28;7337;-63
2022/08/08 09:02:57;;;;;;;;;;;;;;;28.07;40.84;94679.66;5027342;28;9202;-64
2022/08/08 09:05:29;;;;;;;;;;;;;;;28.08;40.86;94686.66;4959471;28;7005;-64
2022/08/08 09:08:02;;;;;;;;;;;;;;;28.09;41.25;94685.41;4945177;28;7231;-64
2022/08/08 09:10:32;;;;;;;;;;;;;;;28.09;41.47;94685.41;4960093;28;9188;-63
2022/08/08 09:13:07;;;;;;;;;;;;;;;28.10;41.20;94677.88;4944900;28;9482;-64
2022/08/08 09:15:34;;;;;;;;;;;;;;;28.09;41.40;94677.13;4960572;28;9046;-64
2022/08/08 09:18:00;;;;;;;;;;;;;;;28.10;41.15;94681.38;4946017;28;7263;-63
2022/08/08 09:20:27;;;;;;;;;;;;;;;28.13;41.13;94674.03;4958193;28;7045;-64
2022/08/08 09:22:57;;;;;;;;;;;;;;;28.10;40.60;94683.41;4953928;28;7187;-64
2022/08/08 09:25:36;;;;;;;;;;;;;;;28.09;41.17;94679.88;4956568;28;7185;-63
2022/08/08 09:28:03;;;;;;;;;;;;;;;28.09;41.03;94677.13;4962717;28;9069;-64
2022/08/08 09:30:37;;;;;;;;;;;;;;;28.09;41.19;94677.13;4951635;28;9161;-63
2022/08/08 09:33:34;;;;;;;;;;;;;;;28.11;41.17;94682.88;4961083;28;7452;-64
2022/08/08 09:36:21;;;;;;;;;;;;;;;28.09;41.55;94682.66;4875773;29;9246;-64
2022/08/08 09:39:15;;;;;;;;;;;;;;;28.08;41.19;94680.38;4894879;29;9030;-64
2022/08/08 09:42:25;;;;;;;;;;;;;;;28.10;41.08;94677.88;4902480;28;7293;-64
2022/08/08 09:45:33;;;;;;;;;;;;;;;28.12;41.25;94681.59;4876735;29;7617;-63
2022/08/08 09:48:17;;;;;;;;;;;;;;;28.12;41.66;94686.41;4857212;29;7228;-64
2022/08/08 09:50:50;;;;;;;;;;;;;;;28.13;41.13;94682.34;4858821;29;7456;-63
2022/08/08 09:53:33;;;;;;;;;;;;;;;28.18;41.44;94685.06;4873019;29;9105;-64
2022/08/08 09:56:16;;;;;;;;;;;;;;;28.14;41.67;94678.31;4858231;29;7015;-63
2022/08/08 09:59:04;;;;;;;;;;;;;;;28.15;41.55;94679.81;4857087;29;9455;-63
2022/08/08 10:01:46;;;;;;;;;;;;;;;28.13;41.42;94677.56;4871783;29;7252;-63
2022/08/08 10:04:26;;;;;;;;;;;;;;;28.14;41.67;94683.84;4859892;29;7268;-63
2022/08/08 10:07:13;;;;;;;;;;;;;;;28.15;41.18;94679.81;4852927;29;9177;-63
2022/08/08 10:10:25;;;;;;;;;;;;;;;28.17;41.42;94678.00;4858834;29;9650;-63
2022/08/08 10:13:31;;;;;;;;;;;;;;;28.20;41.45;94682.53;4834898;29;7262;-63
2022/08/08 10:16:00;;;;;;;;;;;;;;;28.18;41.58;94679.53;4840978;29;9653;-63
2022/08/08 10:18:27;;;;;;;;;;;;;;;28.17;41.31;94675.25;4856059;29;9495;-63
2022/08/08 10:21:06;;;;;;;;;;;;;;;28.15;41.04;94675.03;4860289;29;7232;-63
2022/08/08 10:23:51;;;;;;;;;;;;;;;28.15;41.17;94677.03;4890988;29;7193;-63
2022/08/08 10:26:51;;;;;;;;;;;;;;;28.16;41.20;94679.31;4954981;28;9117;-63
2022/08/08 10:29:33;;;;;;;;;;;;;;;28.16;41.20;94678.53;4955227;28;9025;-63
2022/08/08 10:34:51;;;;;;;;;;;;;;;28.18;41.26;94678.78;4966919;28;7273;-63
2022/08/08 10:37:52;;;;;;;;;;;;;;;28.17;41.36;94678.00;4942147;28;7125;-63
2022/08/08 10:40:56;;;;;;;;;;;;;;;28.18;41.16;94678.78;4954858;28;7086;-63
2022/08/08 10:43:45;;;;;;;;;;;;;;;28.18;41.06;94670.47;4969775;28;9417;-63
2022/08/08 10:46:24;;;;;;;;;;;;;;;28.18;41.79;94676.00;4963848;28;9443;-63
2022/08/08 10:48:57;;;;;;;;;;;;;;;28.17;41.34;94675.25;5026154;28;7410;-63
2022/08/08 10:51:28;;;;;;;;;;;;;;;28.18;40.89;94671.22;5041317;28;8718;-63
2022/08/08 10:53:58;;;;;;;;;;;;;;;28.19;41.11;94666.44;5028508;28;7023;-63
2022/08/08 10:56:24;;;;;;;;;;;;;;;28.20;41.43;94670.69;5026554;28;9380;-63
2022/08/08 10:58:57;;;;;;;;;;;;;;;28.21;41.13;94672.19;5023666;28;7124;-63
2022/08/08 11:01:30;;;;;;;;;;;;;;;28.19;41.44;94669.94;5026525;28;7729;-63
2022/08/08 11:03:59;;;;;;;;;;;;;;;28.22;41.44;94673.69;5023809;28;7160;-63
2022/08/08 11:06:35;;;;;;;;;;;;;;;28.25;40.77;94670.63;5027313;28;9004;-63
2022/08/08 11:09:11;;;;;;;;;;;;;;;28.28;41.36;94668.84;5041748;28;9054;-63
2022/08/08 11:11:40;;;;;;;;;;;;;;;28.29;40.66;94667.56;5030393;28;9291;-63
2022/08/08 11:14:13;;;;;;;;;;;;;;;28.31;40.73;94671.31;5023649;28;9103;-63
2022/08/08 11:16:43;;;;;;;;;;;;;;;28.33;41.06;94668.03;5020892;28;7155;-63
2022/08/08 11:19:09;;;;;;;;;;;;;;;28.33;41.12;94673.56;5019901;28;7407;-63
2022/08/08 11:21:44;;;;;;;;;;;;;;;28.39;41.00;94668.69;5028075;28;7196;-63
2022/08/08 11:24:12;;;;;;;;;;;;;;;28.40;41.13;94661.91;5025700;28;7368;-63
2022/08/08 11:26:41;;;;;;;;;;;;;;;28.39;40.56;94665.94;5017075;28;7009;-63
2022/08/08 11:29:09;;;;;;;;;;;;;;;28.42;40.73;94664.13;5018704;28;9092;-64
2022/08/08 11:31:37;;;;;;;;;;;;;;;28.41;41.02;94663.38;5019953;28;7257;-63
2022/08/08 11:34:04;;;;;;;;;;;;;;;28.43;40.13;94660.84;5033943;28;7185;-64
2022/08/08 11:36:33;;;;;;;;;;;;;;;28.42;40.81;94656.59;5019182;28;7228;-63
2022/08/08 11:39:01;;;;;;;;;;;;;;;28.44;40.69;94662.34;5036403;28;9198;-63
2022/08/08 11:41:28;;;;;;;;;;;;;;;28.48;40.16;94664.81;5018892;28;7226;-64
2022/08/08 11:43:56;;;;;;;;;;;;;;;28.50;40.66;94665.03;5034484;28;7524;-64
2022/08/08 11:46:27;;;;;;;;;;;;;;;28.52;40.67;94660.47;5017266;28;7275;-63
2022/08/08 11:48:58;;;;;;;;;;;;;;;28.55;40.14;94655.91;5019025;28;7552;-63
2022/08/08 11:51:28;;;;;;;;;;;;;;;28.56;39.88;94655.38;5016134;28;7212;-63
2022/08/08 11:53:55;;;;;;;;;;;;;;;28.59;40.14;94659.16;5026906;28;9520;-63
2022/08/08 11:56:22;;;;;;;;;;;;;;;28.57;40.44;94659.69;5017617;28;9167;-63
2022/08/08 11:58:49;;;;;;;;;;;;;;;28.55;40.48;94653.16;5027875;28;9478;-63
2022/08/08 12:01:16;;;;;;;;;;;;;;;28.53;40.53;94648.13;5018766;28;7251;-64
2022/08/08 12:03:48;;;;;;;;;;;;;;;28.52;40.38;94654.19;5017015;28;7127;-63
2022/08/08 12:06:16;;;;;;;;;;;;;;;28.52;40.77;94654.19;5017815;28;8674;-63
2022/08/08 12:08:47;;;;;;;;;;;;;;;28.51;40.80;94649.94;5018180;28;7041;-63
2022/08/08 12:11:17;;;;;;;;;;;;;;;28.49;40.45;94653.22;5026313;28;7589;-63
2022/08/08 12:13:49;;;;;;;;;;;;;;;28.48;40.77;94637.88;5016823;28;7000;-64
2022/08/08 12:16:18;;;;;;;;;;;;;;;28.49;40.95;94647.69;5015913;28;9056;-63
2022/08/08 12:18:51;;;;;;;;;;;;;;;28.49;40.73;94646.94;5018522;28;7286;-63
2022/08/08 12:21:30;;;;;;;;;;;;;;;28.48;40.85;94651.72;5025098;28;7260;-64
2022/08/08 12:24:12;;;;;;;;;;;;;;;28.49;40.87;94652.47;5023854;28;7001;-63
2022/08/08 12:26:49;;;;;;;;;;;;;;;28.49;40.67;94635.88;5036343;28;9011;-63
2022/08/08 12:30:05;;;;;;;;;;;;;;;28.50;41.11;94642.88;5028749;28;7057;-64
2022/08/08 12:32:42;;;;;;;;;;;;;;;28.51;40.84;94638.88;4965439;28;8816;-63
2022/08/08 12:35:24;;;;;;;;;;;;;;;28.51;40.91;94644.41;4974676;28;9534;-63
2022/08/08 12:38:30;;;;;;;;;;;;;;;28.52;40.61;94646.63;4967608;28;7265;-63
2022/08/08 12:41:12;;;;;;;;;;;;;;;28.52;40.74;94641.09;4925978;29;7097;-63
2022/08/08 12:43:39;;;;;;;;;;;;;;;28.53;40.87;94647.38;4921668;29;7458;-63
2022/08/08 12:46:21;;;;;;;;;;;;;;;28.54;40.79;94635.03;4906587;29;7208;-63
2022/08/08 12:48:53;;;;;;;;;;;;;;;28.53;40.46;94639.09;4916343;29;9565;-63
2022/08/08 12:51:22;;;;;;;;;;;;;;;28.53;41.09;94642.59;4928505;29;9054;-63
2022/08/08 12:54:00;;;;;;;;;;;;;;;28.54;40.84;94641.31;4925444;29;9094;-63
2022/08/08 12:56:45;;;;;;;;;;;;;;;28.56;40.97;94635.28;4928761;29;8138;-63
2022/08/08 12:59:28;;;;;;;;;;;;;;;28.57;40.74;94637.53;4907139;29;7145;-63
2022/08/08 13:02:45;;;;;;;;;;;;;;;28.57;41.10;94639.53;4893498;29;7242;-63
2022/08/08 13:05:23;;;;;;;;;;;;;;;28.56;40.53;94624.94;4902097;29;7457;-63
2022/08/08 13:07:49;;;;;;;;;;;;;;;28.57;40.72;94631.22;4920140;28;9476;-63
2022/08/08 13:10:18;;;;;;;;;;;;;;;28.56;41.30;94635.28;4960111;28;7189;-63
2022/08/08 13:13:02;;;;;;;;;;;;;;;28.58;40.96;94636.25;5016438;28;9006;-63
2022/08/08 13:15:28;;;;;;;;;;;;;;;28.59;40.60;94626.69;5035810;28;7454;-63
2022/08/08 13:17:55;;;;;;;;;;;;;;;28.60;40.46;94633.72;5021385;28;7342;-63
2022/08/08 13:20:22;;;;;;;;;;;;;;;28.59;40.51;94628.72;5027917;28;9260;-63
2022/08/08 13:22:49;;;;;;;;;;;;;;;28.62;40.94;94639.50;5034431;28;9608;-63
2022/08/08 13:25:22;;;;;;;;;;;;;;;28.62;40.59;94638.75;5016074;28;7427;-63
2022/08/08 13:27:56;;;;;;;;;;;;;;;28.63;40.64;94627.13;5018265;28;9081;-64
2022/08/08 13:30:25;;;;;;;;;;;;;;;28.66;40.54;94637.16;5016015;28;7005;-63
2022/08/08 13:33:03;;;;;;;;;;;;;;;28.65;40.68;94630.13;5024659;28;9090;-63
2022/08/08 13:35:38;;;;;;;;;;;;;;;28.64;40.91;94631.41;5020840;28;7757;-63
2022/08/08 13:38:23;;;;;;;;;;;;;;;28.65;40.65;94621.81;5039446;28;9156;-63
2022/08/08 13:40:51;;;;;;;;;;;;;;;28.68;40.39;94628.31;5025443;28;9552;-64
2022/08/08 13:43:28;;;;;;;;;;;;;;;28.68;40.68;94620.78;5040490;28;7275;-63
2022/08/08 13:46:19;;;;;;;;;;;;;;;28.70;40.57;94621.00;5022695;28;9105;-63
2022/08/08 13:48:52;;;;;;;;;;;;;;;28.68;40.98;94620.03;5026239;28;7215;-62
2022/08/08 13:51:33;;;;;;;;;;;;;;;28.67;41.12;94621.28;5040500;28;7225;-62
2022/08/08 13:54:09;;;;;;;;;;;;;;;28.66;40.99;94615.03;5018907;28;7404;-63
2022/08/08 13:56:40;;;;;;;;;;;;;;;28.65;40.80;94616.28;5022118;28;7268;-62
2022/08/08 13:59:30;;;;;;;;;;;;;;;28.68;40.78;94618.00;5023827;28;9142;-62
2022/08/08 14:01:57;;;;;;;;;;;;;;;28.67;40.60;94613.72;5013589;28;7564;-63
2022/08/08 14:04:25;;;;;;;;;;;;;;;28.68;40.96;94626.31;5040080;28;7250;-63
2022/08/08 14:07:03;;;;;;;;;;;;;;;28.68;41.00;94620.78;5040268;28;7407;-63
2022/08/08 14:09:44;;;;;;;;;;;;;;;28.69;40.82;94618.72;5022298;28;7072;-63
2022/08/08 14:12:17;;;;;;;;;;;;;;;28.69;41.13;94622.25;5041363;28;7497;-63
2022/08/08 14:14:46;;;;;;;;;;;;;;;28.69;40.99;94625.03;5019797;28;7102;-63
2022/08/08 14:17:13;;;;;;;;;;;;;;;28.70;40.26;94618.22;5036527;28;7255;-63